createdAt,value
2023-02-27T00:00:03.983Z,5.2
2023-02-27T00:02:30.710Z,5.2
2023-02-27T00:04:57.349Z,5.3
2023-02-27T00:07:24.026Z,5.2
2023-02-27T00:09:50.722Z,5.2
2023-02-27T00:12:17.413Z,5.2
2023-02-27T00:14:44.113Z,5.2
2023-02-27T00:17:10.771Z,5.2
2023-02-27T00:19:36.000Z,5.2
2023-02-27T00:22:02.688Z,5.2
2023-02-27T00:24:29.378Z,5.2
2023-02-27T00:29:22.746Z,5.2
2023-02-27T00:31:49.423Z,5.2
2023-02-27T00:34:16.119Z,5.2
2023-02-27T00:36:42.791Z,5.2
2023-02-27T00:39:09.472Z,5.2
2023-02-27T00:41:36.174Z,5.2
2023-02-27T00:44:02.856Z,5.2
2023-02-27T00:46:29.530Z,5.2
2023-02-27T00:48:56.219Z,5.2
2023-02-27T00:51:21.438Z,5.2
2023-02-27T00:53:48.130Z,5.1
2023-02-27T00:56:14.817Z,5.1
2023-02-27T00:58:41.523Z,5.1
2023-02-27T01:01:08.192Z,5.1
2023-02-27T01:03:34.878Z,5.1
2023-02-27T01:06:01.545Z,5.1
2023-02-27T01:08:28.244Z,5.1
2023-02-27T01:10:54.939Z,5.1
2023-02-27T01:13:21.623Z,5.1
2023-02-27T01:15:48.308Z,5.1
2023-02-27T01:18:15.002Z,5.1
2023-02-27T01:20:41.696Z,5.1
2023-02-27T01:23:06.914Z,5.1
2023-02-27T01:25:33.586Z,5.1
2023-02-27T01:28:00.277Z,5.1
2023-02-27T01:30:26.970Z,5.1
2023-02-27T01:32:53.645Z,5.1
2023-02-27T01:35:20.331Z,5.1
2023-02-27T01:37:47.019Z,5.1
2023-02-27T01:40:13.779Z,5.1
2023-02-27T01:42:40.408Z,5.1
2023-02-27T01:45:07.086Z,5.1
2023-02-27T01:47:33.775Z,5.1
2023-02-27T01:50:00.456Z,5
2023-02-27T01:52:27.147Z,5.1
2023-02-27T01:54:53.850Z,5
2023-02-27T01:57:20.509Z,5
2023-02-27T01:59:47.283Z,5
2023-02-27T02:02:12.418Z,5
2023-02-27T02:04:39.114Z,5
2023-02-27T02:07:05.807Z,5
2023-02-27T02:09:32.485Z,5
2023-02-27T02:11:59.178Z,5
2023-02-27T02:14:25.857Z,5
2023-02-27T02:16:52.559Z,5
2023-02-27T02:19:19.236Z,5
2023-02-27T02:21:45.917Z,4.9
2023-02-27T02:24:12.595Z,4.9
2023-02-27T02:26:39.334Z,4.9
2023-02-27T02:29:05.978Z,4.9
2023-02-27T02:31:32.663Z,4.9
2023-02-27T02:33:57.882Z,4.9
2023-02-27T02:36:24.563Z,4.9
2023-02-27T02:38:51.263Z,4.9
2023-02-27T02:41:17.934Z,4.9
2023-02-27T02:43:44.630Z,4.9
2023-02-27T02:46:11.308Z,4.9
2023-02-27T02:48:37.990Z,4.9
2023-02-27T02:51:04.696Z,4.9
2023-02-27T02:53:31.377Z,4.9
2023-02-27T02:55:58.057Z,4.9
2023-02-27T02:58:24.749Z,4.9
2023-02-27T03:00:51.427Z,4.9
2023-02-27T03:03:18.111Z,4.9
2023-02-27T03:05:43.333Z,4.9
2023-02-27T03:08:10.017Z,4.9
2023-02-27T03:10:36.696Z,4.9
2023-02-27T03:13:03.407Z,4.9
2023-02-27T03:15:30.081Z,4.9
2023-02-27T03:17:56.781Z,4.8
2023-02-27T03:20:23.457Z,4.8
2023-02-27T03:22:50.141Z,4.8
2023-02-27T03:25:16.834Z,4.8
2023-02-27T03:27:43.504Z,4.8
2023-02-27T03:30:10.202Z,4.8
2023-02-27T03:32:36.867Z,4.8
2023-02-27T03:35:03.566Z,4.8
2023-02-27T03:37:28.793Z,4.8
2023-02-27T03:39:55.474Z,4.8
2023-02-27T03:42:22.151Z,4.7
2023-02-27T03:44:48.855Z,4.7
2023-02-27T03:47:15.544Z,4.7
2023-02-27T03:49:42.202Z,4.7
2023-02-27T03:52:08.899Z,4.7
2023-02-27T03:54:35.583Z,4.7
2023-02-27T03:57:02.267Z,4.7
2023-02-27T03:59:28.941Z,4.7
2023-02-27T04:01:55.636Z,4.7
2023-02-27T04:04:22.328Z,4.7
2023-02-27T04:06:49.016Z,4.7
2023-02-27T04:09:15.689Z,4.7
2023-02-27T04:11:40.922Z,4.7
2023-02-27T04:14:07.609Z,4.7
2023-02-27T04:16:34.288Z,4.7
2023-02-27T04:19:00.973Z,4.7
2023-02-27T04:21:27.701Z,4.7
2023-02-27T04:23:54.346Z,4.7
2023-02-27T04:26:21.033Z,4.7
2023-02-27T04:28:47.730Z,4.7
2023-02-27T04:31:14.418Z,4.7
2023-02-27T04:33:41.098Z,4.7
2023-02-27T04:36:07.804Z,4.6
2023-02-27T04:38:34.459Z,4.6
2023-02-27T04:41:01.163Z,4.6
2023-02-27T04:43:26.372Z,4.6
2023-02-27T04:45:53.059Z,4.6
2023-02-27T04:48:19.746Z,4.6
2023-02-27T04:53:13.124Z,4.6
2023-02-27T04:55:39.813Z,4.6
2023-02-27T04:58:06.500Z,4.6
2023-02-27T05:00:33.197Z,4.6
2023-02-27T05:02:59.869Z,4.6
2023-02-27T05:05:26.561Z,4.6
2023-02-27T05:07:53.236Z,4.6
2023-02-27T05:10:19.927Z,4.6
2023-02-27T05:12:46.614Z,4.6
2023-02-27T05:15:11.838Z,4.6
2023-02-27T05:17:38.522Z,4.6
2023-02-27T05:20:05.230Z,4.6
2023-02-27T05:22:31.899Z,4.6
2023-02-27T05:24:58.566Z,4.6
2023-02-27T05:27:25.262Z,4.6
2023-02-27T05:29:51.955Z,4.5
2023-02-27T05:32:18.636Z,4.5
2023-02-27T05:34:45.331Z,4.5
2023-02-27T05:37:12.012Z,4.5
2023-02-27T05:39:38.704Z,4.5
2023-02-27T05:42:05.371Z,4.5
2023-02-27T05:44:32.062Z,4.5
2023-02-27T05:46:57.280Z,4.5
2023-02-27T05:49:23.970Z,4.5
2023-02-27T05:51:50.656Z,4.4
2023-02-27T05:54:17.355Z,4.5
2023-02-27T05:56:44.028Z,4.5
2023-02-27T05:59:10.726Z,4.5
2023-02-27T06:01:37.395Z,4.5
2023-02-27T06:04:04.073Z,4.5
2023-02-27T06:06:30.767Z,4.4
2023-02-27T06:08:57.457Z,4.4
2023-02-27T06:11:24.158Z,4.4
2023-02-27T06:13:50.834Z,4.4
2023-02-27T06:16:17.528Z,4.4
2023-02-27T06:18:42.749Z,4.4
2023-02-27T06:21:09.423Z,4.4
2023-02-27T06:23:36.114Z,4.4
2023-02-27T06:26:02.808Z,4.4
2023-02-27T06:28:29.480Z,4.4
2023-02-27T06:30:56.168Z,4.4
2023-02-27T06:33:22.867Z,4.4
2023-02-27T06:35:49.548Z,4.4
2023-02-27T06:38:16.238Z,4.3
2023-02-27T06:40:42.911Z,4.3
2023-02-27T06:43:09.598Z,4.4
2023-02-27T06:45:36.272Z,4.4
2023-02-27T06:48:02.965Z,4.4
2023-02-27T06:50:28.178Z,4.4
2023-02-27T06:52:54.869Z,4.4
2023-02-27T06:55:20.106Z,4.4
2023-02-27T06:57:46.796Z,4.4
2023-02-27T07:00:13.483Z,4.4
2023-02-27T07:02:40.182Z,4.4
2023-02-27T07:05:06.855Z,4.4
2023-02-27T07:07:33.541Z,4.4
2023-02-27T07:10:00.230Z,4.4
2023-02-27T07:12:26.913Z,4.3
2023-02-27T07:14:53.599Z,4.3
2023-02-27T07:17:20.282Z,4.3
2023-02-27T07:19:46.973Z,4.3
2023-02-27T07:22:13.660Z,4.3
2023-02-27T07:24:40.343Z,4.3
2023-02-27T07:27:05.574Z,4.3
2023-02-27T07:29:32.252Z,4.3
2023-02-27T07:31:58.933Z,4.3
2023-02-27T07:34:25.613Z,4.3
2023-02-27T07:36:52.309Z,4.2
2023-02-27T07:39:18.998Z,4.2
2023-02-27T07:41:45.666Z,4.2
2023-02-27T07:44:12.358Z,4.2
2023-02-27T07:49:05.827Z,4.2
2023-02-27T07:51:32.498Z,4.2
2023-02-27T07:53:59.173Z,4.2
2023-02-27T07:56:25.867Z,4.2
2023-02-27T07:58:51.082Z,4.2
2023-02-27T08:01:17.908Z,4.2
2023-02-27T08:03:44.473Z,4.2
2023-02-27T08:06:11.110Z,4.2
2023-02-27T08:08:37.789Z,4.2
2023-02-27T08:11:04.449Z,4.2
2023-02-27T08:13:31.146Z,4.2
2023-02-27T08:15:57.820Z,4.2
2023-02-27T08:18:24.486Z,4.2
2023-02-27T08:20:51.181Z,4.2
2023-02-27T08:23:17.877Z,4.2
2023-02-27T08:25:44.552Z,4.2
2023-02-27T08:28:11.232Z,4.2
2023-02-27T08:30:36.460Z,4.2
2023-02-27T08:33:03.165Z,4.2
2023-02-27T08:35:29.886Z,4.3
2023-02-27T08:37:56.507Z,4.4
2023-02-27T08:40:23.194Z,4.4
2023-02-27T08:42:49.938Z,4.4
2023-02-27T08:45:16.572Z,4.4
2023-02-27T08:47:43.249Z,4.4
2023-02-27T08:50:09.941Z,4.4
2023-02-27T08:52:36.610Z,4.5
2023-02-27T08:55:03.308Z,4.5
2023-02-27T08:57:29.998Z,4.6
2023-02-27T08:59:56.737Z,4.6
2023-02-27T09:02:21.891Z,4.6
2023-02-27T09:04:48.583Z,4.6
2023-02-27T09:07:15.299Z,4.6
2023-02-27T09:09:41.946Z,4.7
2023-02-27T09:12:08.653Z,4.7
2023-02-27T09:14:35.394Z,4.7
2023-02-27T09:17:02.014Z,4.7
2023-02-27T09:19:28.683Z,4.7
2023-02-27T09:24:22.151Z,4.7
2023-02-27T09:29:15.583Z,4.7
2023-02-27T09:31:42.134Z,4.7
2023-02-27T09:34:07.351Z,4.7
2023-02-27T09:36:34.040Z,4.8
2023-02-27T09:39:00.750Z,4.7
2023-02-27T09:41:27.413Z,4.8
2023-02-27T09:43:54.083Z,4.9
2023-02-27T09:46:20.765Z,4.8
2023-02-27T09:48:47.449Z,5
2023-02-27T09:51:14.169Z,5.1
2023-02-27T09:53:40.841Z,5.1
2023-02-27T09:56:07.533Z,5.1
2023-02-27T09:58:34.199Z,5.2
2023-02-27T10:01:00.895Z,5.2
2023-02-27T10:03:27.591Z,5.2
2023-02-27T10:05:52.779Z,5.2
2023-02-27T10:08:19.477Z,5.3
2023-02-27T10:10:46.180Z,5.2
2023-02-27T10:13:12.875Z,5.2
2023-02-27T10:15:39.546Z,5.1
2023-02-27T10:18:06.211Z,5.2
2023-02-27T10:20:33.007Z,5.2
2023-02-27T10:22:59.593Z,5.3
2023-02-27T10:25:26.295Z,5.3
2023-02-27T10:27:52.952Z,5.4
2023-02-27T10:30:19.780Z,5.3
2023-02-27T10:32:46.341Z,5.3
2023-02-27T10:35:13.144Z,5.4
2023-02-27T10:37:39.774Z,5.4
2023-02-27T10:40:04.922Z,5.5
2023-02-27T10:42:31.640Z,5.6
2023-02-27T10:44:58.304Z,5.6
2023-02-27T10:47:25.046Z,5.4
2023-02-27T10:49:51.694Z,5.3
2023-02-27T10:52:18.435Z,5.4
2023-02-27T10:54:45.021Z,5.5
2023-02-27T10:57:11.723Z,5.6
2023-02-27T10:59:38.499Z,5.7
2023-02-27T11:02:05.123Z,5.7
2023-02-27T11:04:31.777Z,5.5
2023-02-27T11:06:58.445Z,5.6
2023-02-27T11:09:25.150Z,5.7
2023-02-27T11:11:51.836Z,5.8
2023-02-27T11:14:18.515Z,5.8
2023-02-27T11:16:45.198Z,5.8
2023-02-27T11:19:10.427Z,5.7
2023-02-27T11:21:37.109Z,5.7
2023-02-27T11:24:03.828Z,5.9
2023-02-27T11:26:30.475Z,5.8
2023-02-27T11:28:57.196Z,5.9
2023-02-27T11:31:23.846Z,6.1
2023-02-27T11:33:50.609Z,6.2
2023-02-27T11:36:17.215Z,6.2
2023-02-27T11:38:43.901Z,6.2
2023-02-27T11:41:10.591Z,6.2
2023-02-27T11:43:37.276Z,6.2
2023-02-27T11:46:03.966Z,6.2
2023-02-27T11:48:30.648Z,6.3
2023-02-27T11:50:57.340Z,6.3
2023-02-27T11:53:24.036Z,6.2
2023-02-27T11:55:50.734Z,6.2
2023-02-27T11:58:17.393Z,6.2
2023-02-27T12:00:42.609Z,6.1
2023-02-27T12:03:09.302Z,6.1
2023-02-27T12:05:36.072Z,5.9
2023-02-27T12:08:02.691Z,5.7
2023-02-27T12:10:29.372Z,5.6
2023-02-27T12:12:56.040Z,5.6
2023-02-27T12:15:22.731Z,5.6
2023-02-27T12:17:49.400Z,5.6
2023-02-27T12:20:16.075Z,5.6
2023-02-27T12:22:42.788Z,5.7
2023-02-27T12:25:09.472Z,5.7
2023-02-27T12:27:36.146Z,5.6
2023-02-27T12:30:02.877Z,5.6
2023-02-27T12:32:28.048Z,5.7
2023-02-27T12:34:54.737Z,5.8
2023-02-27T12:37:21.430Z,6
2023-02-27T12:42:14.786Z,6.2
2023-02-27T12:47:08.154Z,6.4
2023-02-27T12:49:34.900Z,6.6
2023-02-27T12:52:01.527Z,6.6
2023-02-27T12:54:28.217Z,6.6
2023-02-27T12:56:54.914Z,6.5
2023-02-27T12:59:21.602Z,6.4
2023-02-27T13:01:48.266Z,6.2
2023-02-27T13:04:14.979Z,6.1
2023-02-27T13:06:40.290Z,6.1
2023-02-27T13:09:06.959Z,6.1
2023-02-27T13:11:33.629Z,6.1
2023-02-27T13:16:26.945Z,6.2
2023-02-27T13:18:52.185Z,6.1
2023-02-27T13:21:17.439Z,6.1
2023-02-27T13:23:44.102Z,6.1
2023-02-27T13:26:10.775Z,6.2
2023-02-27T13:28:37.468Z,6.2
2023-02-27T13:31:04.210Z,6.2
2023-02-27T13:33:30.835Z,6.2
2023-02-27T13:35:57.526Z,6.1
2023-02-27T13:38:24.207Z,6.1
2023-02-27T13:40:50.870Z,6.1
2023-02-27T13:43:17.570Z,6
2023-02-27T13:45:42.811Z,6
2023-02-27T13:48:09.499Z,6
2023-02-27T13:50:36.189Z,6.1
2023-02-27T13:53:01.410Z,6.1
2023-02-27T13:55:28.121Z,6
2023-02-27T13:57:54.806Z,6
2023-02-27T14:00:21.477Z,6
2023-02-27T14:02:48.152Z,6.1
2023-02-27T14:05:14.911Z,6.1
2023-02-27T14:07:41.554Z,6.1
2023-02-27T14:10:08.247Z,6.1
2023-02-27T14:12:34.907Z,6.1
2023-02-27T14:15:01.713Z,6.1
2023-02-27T14:17:28.257Z,6.1
2023-02-27T14:19:54.967Z,6.1
2023-02-27T14:22:21.642Z,6.1
2023-02-27T14:24:46.869Z,6.1
2023-02-27T14:27:13.556Z,6.1
2023-02-27T14:29:40.226Z,6.2
2023-02-27T14:32:06.912Z,6.2
2023-02-27T14:34:33.588Z,6.1
2023-02-27T14:37:00.290Z,6
2023-02-27T14:39:26.960Z,6
2023-02-27T14:41:53.733Z,6.1
2023-02-27T14:44:20.385Z,6.1
2023-02-27T14:46:47.017Z,6.1
2023-02-27T14:49:13.695Z,6.1
2023-02-27T14:51:40.397Z,6.1
2023-02-27T14:54:07.088Z,6.1
2023-02-27T14:56:33.767Z,6.1
2023-02-27T14:58:59.002Z,6.1
2023-02-27T15:01:25.683Z,6.1
2023-02-27T15:03:52.367Z,6.1
2023-02-27T15:06:19.055Z,6.1
2023-02-27T15:08:44.305Z,6
2023-02-27T15:11:10.986Z,6
2023-02-27T15:13:37.671Z,6
2023-02-27T15:16:04.355Z,6
2023-02-27T15:18:31.051Z,6
2023-02-27T15:20:57.732Z,6
2023-02-27T15:23:24.537Z,6.1
2023-02-27T15:25:51.090Z,6.1
2023-02-27T15:28:17.764Z,6.1
2023-02-27T15:30:44.468Z,6.1
2023-02-27T15:33:11.154Z,6.1
2023-02-27T15:35:37.837Z,6.1
2023-02-27T15:38:04.522Z,6.1
2023-02-27T15:40:29.778Z,6.1
2023-02-27T15:42:56.432Z,6.1
2023-02-27T15:45:23.174Z,6.1
2023-02-27T15:47:49.840Z,6.1
2023-02-27T15:50:16.475Z,6.1
2023-02-27T15:52:43.198Z,6.1
2023-02-27T15:55:09.858Z,6.1
2023-02-27T15:57:36.549Z,6.1
2023-02-27T16:00:03.219Z,6.1
2023-02-27T16:02:29.913Z,6.2
2023-02-27T16:04:56.612Z,6.2
2023-02-27T16:07:23.296Z,6.2
2023-02-27T16:09:49.973Z,6.2
2023-02-27T16:12:15.189Z,6.2
2023-02-27T16:14:41.868Z,6.2
2023-02-27T16:17:08.553Z,6.2
2023-02-27T16:19:35.250Z,6.2
2023-02-27T16:24:28.603Z,6.2
2023-02-27T16:26:55.289Z,6.1
2023-02-27T16:29:21.971Z,6.1
2023-02-27T16:34:15.348Z,6.1
2023-02-27T16:36:42.033Z,6.2
2023-02-27T16:39:08.722Z,6.2
2023-02-27T16:41:35.463Z,6.2
2023-02-27T16:44:00.633Z,6.2
2023-02-27T16:46:27.306Z,6.2
2023-02-27T16:48:53.994Z,6.2
2023-02-27T16:51:20.723Z,6.2
2023-02-27T16:53:47.382Z,6.2
2023-02-27T16:56:14.052Z,6.2
2023-02-27T16:58:40.780Z,6.2
2023-02-27T17:01:07.423Z,6.2
2023-02-27T17:03:34.104Z,6.2
2023-02-27T17:06:00.811Z,6.2
2023-02-27T17:08:27.465Z,6.2
2023-02-27T17:10:54.170Z,6.2
2023-02-27T17:13:20.845Z,6.1
2023-02-27T17:15:46.055Z,6.2
2023-02-27T17:18:12.752Z,6.2
2023-02-27T17:20:39.453Z,6.1
2023-02-27T17:23:06.129Z,6.2
2023-02-27T17:25:32.804Z,6.2
2023-02-27T17:27:59.483Z,6.2
2023-02-27T17:30:26.168Z,6.2
2023-02-27T17:32:52.870Z,6.2
2023-02-27T17:35:19.571Z,6.2
2023-02-27T17:37:46.246Z,6.2
2023-02-27T17:40:12.924Z,6.2
2023-02-27T17:42:39.595Z,6.2
2023-02-27T17:45:06.484Z,6.2
2023-02-27T17:47:31.511Z,6.2
2023-02-27T17:49:58.194Z,6.2
2023-02-27T17:52:24.875Z,6.2
2023-02-27T17:54:51.564Z,6.2
2023-02-27T17:57:18.230Z,6.2
2023-02-27T17:59:44.940Z,6.2
2023-02-27T18:02:11.610Z,6.2
2023-02-27T18:04:38.299Z,6.2
2023-02-27T18:07:04.981Z,6.2
2023-02-27T18:09:31.709Z,6.2
2023-02-27T18:11:58.346Z,6.2
2023-02-27T18:14:25.044Z,6.2
2023-02-27T18:19:18.420Z,6.2
2023-02-27T18:21:43.639Z,6.2
2023-02-27T18:24:10.353Z,6.2
2023-02-27T18:26:37.001Z,6.2
2023-02-27T18:29:03.737Z,6.2
2023-02-27T18:31:30.362Z,6.2
2023-02-27T18:33:57.073Z,6.2
2023-02-27T18:36:23.745Z,6.2
2023-02-27T18:38:50.426Z,6.1
2023-02-27T18:41:17.117Z,6.2
2023-02-27T18:43:43.812Z,6.2
2023-02-27T18:46:10.495Z,6.2
2023-02-27T18:51:03.848Z,6.1
2023-02-27T18:53:29.067Z,6.2
2023-02-27T18:55:55.784Z,6.1
2023-02-27T18:58:22.459Z,6.1
2023-02-27T19:00:49.124Z,6.2
2023-02-27T19:03:15.858Z,6.1
2023-02-27T19:05:42.516Z,6.1
2023-02-27T19:08:09.182Z,6.1
2023-02-27T19:10:35.876Z,6.1
2023-02-27T19:13:02.620Z,6.1
2023-02-27T19:15:29.242Z,6.1
2023-02-27T19:17:55.956Z,6.1
2023-02-27T19:20:22.619Z,6.1
2023-02-27T19:22:49.312Z,6.1
2023-02-27T19:25:14.534Z,6.1
2023-02-27T19:30:07.895Z,6.1
2023-02-27T19:32:34.592Z,6.1
2023-02-27T19:35:01.267Z,6.1
2023-02-27T19:37:27.937Z,6.1
2023-02-27T19:39:54.645Z,6.1
2023-02-27T19:44:48.036Z,6.1
2023-02-27T19:47:14.688Z,6.1
2023-02-27T19:49:41.373Z,6.1
2023-02-27T19:54:34.740Z,6.1
2023-02-27T19:57:00.004Z,6.1
2023-02-27T19:59:26.717Z,6.1
2023-02-27T20:04:18.589Z,6.1
2023-02-27T20:06:45.312Z,6.1
2023-02-27T20:09:11.957Z,6.1
2023-02-27T20:11:38.650Z,6.1
2023-02-27T20:14:05.365Z,6.1
2023-02-27T20:18:58.718Z,6.1
2023-02-27T20:21:25.421Z,6.1
2023-02-27T20:26:18.805Z,6.1
2023-02-27T20:28:45.452Z,6.1
2023-02-27T20:31:10.736Z,6.1
2023-02-27T20:33:35.919Z,6.1
2023-02-27T20:36:02.617Z,6.1
2023-02-27T20:38:29.283Z,6.1
2023-02-27T20:40:55.991Z,6.1
2023-02-27T20:43:22.671Z,6.1
2023-02-27T20:45:49.358Z,6.1
2023-02-27T20:48:16.073Z,6.1
2023-02-27T20:53:09.401Z,6.1
2023-02-27T20:55:36.175Z,6.1
2023-02-27T20:58:02.774Z,6.1
2023-02-27T21:00:29.479Z,6.1
2023-02-27T21:02:56.182Z,6.1
2023-02-27T21:05:21.400Z,6.1
2023-02-27T21:07:48.101Z,6.1
2023-02-27T21:10:14.752Z,6.1
2023-02-27T21:12:41.421Z,6.1
2023-02-27T21:15:08.130Z,6.1
2023-02-27T21:17:34.806Z,6
2023-02-27T21:20:01.489Z,6
2023-02-27T21:22:28.183Z,6
2023-02-27T21:24:53.438Z,6
2023-02-27T21:27:20.118Z,6
2023-02-27T21:29:45.347Z,6
2023-02-27T21:32:12.026Z,6
2023-02-27T21:37:05.468Z,6
2023-02-27T21:39:32.084Z,6
2023-02-27T21:41:58.773Z,6
2023-02-27T21:44:25.461Z,6
2023-02-27T21:46:52.133Z,6
2023-02-27T21:49:18.819Z,6
2023-02-27T21:51:45.547Z,6
2023-02-27T21:54:12.199Z,5.9
2023-02-27T21:56:38.923Z,6
2023-02-27T21:59:05.590Z,6
2023-02-27T22:01:32.250Z,5.9
2023-02-27T22:03:57.481Z,5.9
2023-02-27T22:06:24.152Z,5.9
2023-02-27T22:08:50.856Z,5.9
2023-02-27T22:11:17.528Z,5.9
2023-02-27T22:13:44.228Z,5.9
2023-02-27T22:16:10.910Z,5.9
2023-02-27T22:18:36.145Z,5.9
2023-02-27T22:21:02.854Z,5.9
2023-02-27T22:23:29.567Z,5.9
2023-02-27T22:25:56.223Z,5.9
2023-02-27T22:28:21.468Z,5.9
2023-02-27T22:30:48.139Z,5.9
2023-02-27T22:33:14.809Z,5.9
2023-02-27T22:35:41.635Z,5.9
2023-02-27T22:38:08.182Z,5.9
2023-02-27T22:40:34.880Z,5.9
2023-02-27T22:43:01.563Z,5.9
2023-02-27T22:45:28.239Z,5.9
2023-02-27T22:47:54.926Z,5.9
2023-02-27T22:50:21.639Z,5.9
2023-02-27T22:52:48.316Z,5.9
2023-02-27T22:57:41.694Z,5.9
2023-02-27T23:00:06.904Z,5.8
2023-02-27T23:02:33.599Z,5.8
2023-02-27T23:05:00.269Z,5.8
2023-02-27T23:07:26.969Z,5.8
2023-02-27T23:09:53.640Z,5.8
2023-02-27T23:12:20.333Z,5.8
2023-02-27T23:14:47.164Z,5.8
2023-02-27T23:17:13.700Z,5.8
2023-02-27T23:19:38.940Z,5.8
2023-02-27T23:22:05.679Z,5.8
2023-02-27T23:24:32.313Z,5.7
2023-02-27T23:26:59.014Z,5.7
2023-02-27T23:29:25.704Z,5.8
2023-02-27T23:31:52.396Z,5.7
2023-02-27T23:34:19.050Z,5.7
2023-02-27T23:36:45.748Z,5.7
2023-02-27T23:39:12.443Z,5.7
2023-02-27T23:41:39.117Z,5.7
2023-02-27T23:44:05.792Z,5.7
2023-02-27T23:46:32.495Z,5.7
2023-02-27T23:48:59.181Z,5.7
2023-02-27T23:51:24.423Z,5.7
2023-02-27T23:53:51.066Z,5.7
2023-02-27T23:56:17.757Z,5.7
2023-02-27T23:58:44.446Z,5.7
